Time;durP1;ratioP1;P1;durP2;ratioP2;P2;SDS_P1;SDS_P2;PMS_P1;PMS_P2;Temp;Humidity;BMP_temperature;BMP_pressure;BME280_temperature;BME280_humidity;BME280_pressure;Samples;Min_cycle;Max_cycle;Signal;HPM_P1;HPM_P2
2022/08/03 00:02:20;;;;;;;11.33;9.50;;;19.30;99.90;;;;;;5046103;28;20964;-68
2022/08/03 00:04:47;;;;;;;9.97;9.37;;;19.30;99.90;;;;;;5042472;28;20826;-68
2022/08/03 00:07:17;;;;;;;10.73;9.80;;;19.30;99.90;;;;;;5037771;28;20456;-68
2022/08/03 00:09:44;;;;;;;10.47;9.60;;;19.20;99.90;;;;;;5042511;28;20525;-68
2022/08/03 00:12:12;;;;;;;11.33;9.23;;;19.20;99.90;;;;;;5040923;28;20959;-68
2022/08/03 00:14:40;;;;;;;10.20;9.60;;;19.10;99.90;;;;;;5041434;28;20460;-67
2022/08/03 00:17:10;;;;;;;10.10;9.37;;;19.20;99.90;;;;;;5042589;28;20471;-68
2022/08/03 00:19:38;;;;;;;10.53;9.70;;;19.20;99.90;;;;;;5041487;28;20472;-68
2022/08/03 00:22:07;;;;;;;10.53;9.90;;;19.20;99.90;;;;;;5037617;28;20472;-68
2022/08/03 00:24:38;;;;;;;12.73;9.70;;;19.20;99.90;;;;;;5039035;28;20464;-68
2022/08/03 00:27:05;;;;;;;10.00;9.30;;;19.30;99.90;;;;;;5040031;28;20570;-68
2022/08/03 00:29:32;;;;;;;10.87;10.27;;;19.30;99.90;;;;;;5035864;28;20460;-67
2022/08/03 00:32:01;;;;;;;11.40;10.70;;;19.30;99.90;;;;;;5043775;28;20460;-67
2022/08/03 00:34:29;;;;;;;16.70;11.90;;;19.40;99.90;;;;;;5037739;28;20471;-67
2022/08/03 00:36:57;;;;;;;11.90;11.03;;;19.60;99.90;;;;;;5040053;28;20460;-67
2022/08/03 00:39:25;;;;;;;14.83;11.80;;;19.70;99.90;;;;;;5040683;28;20471;-68
2022/08/03 00:41:53;;;;;;;13.30;11.50;;;19.70;99.90;;;;;;5043870;28;20819;-68
2022/08/03 00:44:20;;;;;;;11.60;10.90;;;19.80;99.90;;;;;;5038406;28;20489;-68
2022/08/03 00:46:47;;;;;;;11.97;11.00;;;19.90;99.90;;;;;;5049894;28;20495;-68
2022/08/03 00:49:15;;;;;;;12.70;11.47;;;19.90;99.90;;;;;;5036472;28;20468;-68
2022/08/03 00:51:42;;;;;;;11.97;11.17;;;19.90;99.90;;;;;;5043218;28;20563;-67
2022/08/03 00:54:10;;;;;;;11.17;10.40;;;20.00;99.90;;;;;;5035569;28;20805;-68
2022/08/03 00:56:37;;;;;;;11.33;10.47;;;19.90;99.90;;;;;;5042733;28;20464;-68
2022/08/03 00:59:07;;;;;;;12.23;10.73;;;19.80;99.90;;;;;;5041709;28;22518;-68
2022/08/03 01:01:34;;;;;;;12.00;11.10;;;19.70;99.90;;;;;;5043080;28;20491;-68
2022/08/03 01:04:01;;;;;;;12.77;11.57;;;19.60;99.90;;;;;;5037875;28;20468;-68
2022/08/03 01:06:37;;;;;;;11.80;11.00;;;19.50;99.90;;;;;;5034047;28;20464;-67
2022/08/03 01:09:23;;;;;;;11.97;10.67;;;19.40;99.90;;;;;;5038878;28;20605;-68
2022/08/03 01:12:01;;;;;;;11.80;11.20;;;19.40;99.90;;;;;;5039110;28;20471;-68
2022/08/03 01:14:35;;;;;;;12.47;11.53;;;19.30;99.90;;;;;;5043129;28;20459;-68
2022/08/03 01:17:13;;;;;;;12.77;11.57;;;19.20;99.90;;;;;;5039671;28;20449;-67
2022/08/03 01:19:48;;;;;;;11.57;10.87;;;19.20;99.90;;;;;;5040155;28;20464;-67
2022/08/03 01:22:44;;;;;;;12.20;11.03;;;19.00;99.90;;;;;;5040470;28;20486;-68
2022/08/03 01:25:23;;;;;;;11.50;10.63;;;18.90;99.90;;;;;;5042949;28;20590;-68
2022/08/03 01:28:02;;;;;;;13.07;11.90;;;18.80;99.90;;;;;;5036877;28;20483;-68
2022/08/03 01:30:33;;;;;;;13.37;12.10;;;18.80;99.90;;;;;;5037291;28;20870;-67
2022/08/03 01:33:04;;;;;;;12.50;11.20;;;18.80;99.90;;;;;;5037024;28;20476;-68
2022/08/03 01:35:36;;;;;;;12.50;10.50;;;18.70;99.90;;;;;;5040813;28;20962;-68
2022/08/03 01:38:09;;;;;;;15.50;11.60;;;18.70;99.90;;;;;;5037158;28;20492;-68
2022/08/03 01:40:39;;;;;;;12.37;11.43;;;18.60;99.90;;;;;;5040541;28;20940;-67
2022/08/03 01:43:09;;;;;;;12.40;11.30;;;18.60;99.90;;;;;;5037649;28;20560;-68
2022/08/03 01:45:38;;;;;;;13.57;12.00;;;18.50;99.90;;;;;;5040927;28;20460;-68
2022/08/03 01:48:06;;;;;;;12.77;11.60;;;18.60;99.90;;;;;;5041011;28;20467;-67
2022/08/03 01:50:34;;;;;;;12.57;11.03;;;18.50;99.90;;;;;;5038537;28;20456;-68
2022/08/03 01:53:03;;;;;;;12.43;11.33;;;18.60;99.90;;;;;;5035184;28;20465;-68
2022/08/03 01:55:33;;;;;;;14.50;11.90;;;18.60;99.90;;;;;;5042607;28;20490;-68
2022/08/03 01:58:03;;;;;;;12.87;11.57;;;18.60;99.90;;;;;;5043568;28;20494;-68
2022/08/03 02:00:31;;;;;;;12.37;11.10;;;18.60;99.90;;;;;;5043800;28;20467;-67
2022/08/03 02:03:01;;;;;;;11.67;10.70;;;18.50;99.90;;;;;;5038626;28;20469;-67
2022/08/03 02:05:30;;;;;;;12.10;11.10;;;18.50;99.90;;;;;;5043163;28;20472;-67
2022/08/03 02:07:59;;;;;;;12.20;10.40;;;18.50;99.90;;;;;;5041139;28;20475;-67
2022/08/03 02:10:29;;;;;;;12.77;11.70;;;18.50;99.90;;;;;;5042272;28;20468;-68
2022/08/03 02:13:00;;;;;;;13.67;11.17;;;18.40;99.90;;;;;;5033981;28;20459;-67
2022/08/03 02:15:30;;;;;;;12.10;11.00;;;18.40;99.90;;;;;;5047894;28;20488;-68
2022/08/03 02:18:00;;;;;;;12.70;11.70;;;18.40;99.90;;;;;;5056622;28;20483;-68
2022/08/03 02:20:30;;;;;;;13.40;12.20;;;18.30;99.90;;;;;;5058091;28;20467;-67
2022/08/03 02:22:59;;;;;;;11.97;10.97;;;18.30;99.90;;;;;;5062346;28;21154;-67
2022/08/03 02:25:26;;;;;;;12.93;11.83;;;18.30;99.90;;;;;;5056351;28;21040;-68
2022/08/03 02:27:57;;;;;;;14.33;11.80;;;18.30;99.90;;;;;;5057400;28;20992;-67
2022/08/03 02:30:35;;;;;;;12.77;11.77;;;18.30;99.90;;;;;;5061615;28;20816;-68
2022/08/03 02:33:05;;;;;;;12.20;11.20;;;18.30;99.90;;;;;;5058201;28;20459;-68
2022/08/03 02:35:34;;;;;;;14.57;12.90;;;18.30;99.90;;;;;;5054321;28;20466;-68
2022/08/03 02:38:04;;;;;;;14.50;11.40;;;18.30;99.90;;;;;;5058447;28;20884;-67
2022/08/03 02:40:33;;;;;;;16.23;12.33;;;18.20;99.90;;;;;;5066673;28;20458;-67
2022/08/03 02:43:05;;;;;;;17.27;12.33;;;18.20;99.90;;;;;;5067515;28;20486;-67
2022/08/03 02:45:35;;;;;;;13.57;12.20;;;18.10;99.90;;;;;;5066440;28;20475;-67
2022/08/03 02:48:07;;;;;;;12.50;11.37;;;18.10;99.90;;;;;;5061495;28;20454;-68
2022/08/03 02:50:35;;;;;;;14.57;11.07;;;18.10;99.90;;;;;;5064405;28;20474;-68
2022/08/03 02:53:02;;;;;;;15.90;11.90;;;18.20;99.90;;;;;;5065434;28;20528;-67
2022/08/03 02:55:32;;;;;;;13.60;12.30;;;18.20;99.90;;;;;;5064823;28;20466;-67
2022/08/03 02:58:00;;;;;;;11.90;11.10;;;18.20;99.90;;;;;;5063979;28;20469;-68
2022/08/03 03:00:27;;;;;;;12.87;11.40;;;18.10;99.90;;;;;;5069766;28;20454;-68
2022/08/03 03:02:57;;;;;;;12.67;11.57;;;18.10;99.90;;;;;;5066160;28;20466;-68
2022/08/03 03:05:27;;;;;;;16.63;11.60;;;18.00;99.90;;;;;;5065672;28;20547;-67
2022/08/03 03:07:55;;;;;;;13.87;12.67;;;18.00;99.90;;;;;;5060861;28;20542;-68
2022/08/03 03:10:24;;;;;;;12.77;11.77;;;18.00;99.90;;;;;;5066436;28;20577;-67
2022/08/03 03:12:55;;;;;;;14.80;12.90;;;18.00;99.90;;;;;;5067872;28;20465;-67
2022/08/03 03:15:23;;;;;;;12.63;11.73;;;18.00;99.90;;;;;;5066213;28;20505;-68
2022/08/03 03:17:51;;;;;;;16.03;12.50;;;18.00;99.90;;;;;;5058427;28;20459;-68
2022/08/03 03:20:20;;;;;;;12.33;11.20;;;17.90;99.90;;;;;;5058279;28;20557;-67
2022/08/03 03:22:50;;;;;;;12.80;11.60;;;17.90;99.90;;;;;;5064978;28;21166;-67
2022/08/03 03:25:18;;;;;;;12.77;11.20;;;17.80;99.90;;;;;;5068727;28;20964;-68
2022/08/03 03:27:47;;;;;;;12.93;11.97;;;17.80;99.90;;;;;;5066656;28;20827;-67
2022/08/03 03:30:16;;;;;;;12.90;11.67;;;17.80;99.90;;;;;;5061611;28;20561;-67
2022/08/03 03:32:43;;;;;;;13.97;11.70;;;17.80;99.90;;;;;;5061089;28;20468;-67
2022/08/03 03:35:11;;;;;;;13.27;11.47;;;17.80;99.90;;;;;;5065066;28;20463;-68
2022/08/03 03:37:39;;;;;;;12.47;11.30;;;17.80;99.90;;;;;;5060854;28;20513;-68
2022/08/03 03:40:09;;;;;;;12.67;11.60;;;17.80;99.90;;;;;;5065617;28;20495;-67
2022/08/03 03:42:39;;;;;;;12.23;11.13;;;17.80;99.90;;;;;;5065827;28;20466;-67
2022/08/03 03:45:08;;;;;;;12.00;10.67;;;17.80;99.90;;;;;;5068279;28;21054;-68
2022/08/03 03:47:35;;;;;;;15.23;11.53;;;17.80;99.90;;;;;;5069679;28;20463;-68
2022/08/03 03:50:02;;;;;;;13.67;11.40;;;17.80;99.90;;;;;;5062642;28;20572;-68
2022/08/03 03:52:29;;;;;;;12.13;11.33;;;17.80;99.90;;;;;;5055551;28;21111;-67
2022/08/03 03:54:57;;;;;;;14.93;12.67;;;17.80;99.90;;;;;;5066397;28;20458;-67
2022/08/03 03:57:25;;;;;;;12.87;11.93;;;17.80;99.90;;;;;;5065428;28;21075;-67
2022/08/03 03:59:52;;;;;;;13.10;11.97;;;17.90;99.90;;;;;;5063431;28;20478;-68
2022/08/03 04:02:19;;;;;;;12.47;11.50;;;17.90;99.90;;;;;;5047051;28;20470;-68
2022/08/03 04:13:17;;;;;;;12.50;11.50;;;18.00;99.90;;;;;;5036010;28;20620;-68
2022/08/03 04:15:46;;;;;;;13.97;12.70;;;17.90;99.90;;;;;;5036334;28;20479;-67
2022/08/03 04:18:15;;;;;;;13.40;12.30;;;17.80;99.90;;;;;;5037474;28;20989;-67
2022/08/03 04:20:47;;;;;;;13.73;12.40;;;17.80;99.90;;;;;;5035209;28;20478;-68
2022/08/03 04:23:15;;;;;;;14.87;12.10;;;17.70;99.90;;;;;;5035400;28;20467;-68
2022/08/03 04:25:43;;;;;;;13.13;12.10;;;17.70;99.90;;;;;;5034649;28;20456;-68
2022/08/03 04:28:13;;;;;;;13.83;12.67;;;17.70;99.90;;;;;;5032493;28;20469;-68
2022/08/03 04:30:46;;;;;;;12.87;11.93;;;17.60;99.90;;;;;;5035259;28;20475;-68
2022/08/03 04:33:14;;;;;;;13.20;12.27;;;17.60;99.90;;;;;;5034289;28;20460;-67
2022/08/03 04:35:43;;;;;;;13.37;12.47;;;17.60;99.90;;;;;;5037167;28;20463;-68
2022/08/03 04:38:13;;;;;;;14.60;13.17;;;17.70;99.90;;;;;;5036672;28;20447;-68
2022/08/03 04:40:42;;;;;;;13.93;12.60;;;17.70;99.90;;;;;;5035323;28;20463;-68
2022/08/03 04:43:11;;;;;;;13.13;12.13;;;17.70;99.90;;;;;;5036190;28;20518;-68
2022/08/03 04:45:40;;;;;;;16.97;12.97;;;17.80;99.90;;;;;;5036806;28;20456;-67
2022/08/03 04:48:08;;;;;;;13.70;12.13;;;17.90;99.90;;;;;;5037581;28;20455;-68
2022/08/03 04:50:36;;;;;;;15.27;12.80;;;17.90;99.90;;;;;;5036250;28;20562;-69
2022/08/03 04:53:03;;;;;;;12.47;11.70;;;18.10;99.90;;;;;;5035270;28;20472;-68
2022/08/03 04:55:33;;;;;;;27.00;13.53;;;18.20;99.90;;;;;;5035950;28;20486;-68
2022/08/03 04:58:01;;;;;;;14.00;12.73;;;18.40;99.90;;;;;;5036510;28;20515;-68
2022/08/03 05:00:28;;;;;;;13.30;12.30;;;18.50;99.90;;;;;;5036449;28;20522;-68
2022/08/03 05:02:56;;;;;;;13.73;12.53;;;18.60;99.90;;;;;;5036843;28;20466;-68
2022/08/03 05:05:24;;;;;;;13.50;12.33;;;18.70;99.90;;;;;;5036580;28;20471;-68
2022/08/03 05:07:50;;;;;;;22.23;12.80;;;18.90;99.90;;;;;;5036818;28;20730;-68
2022/08/03 05:10:17;;;;;;;13.70;12.60;;;19.00;99.90;;;;;;5037166;28;20572;-68
2022/08/03 05:12:45;;;;;;;14.87;12.77;;;19.10;99.90;;;;;;5036218;28;20471;-67
2022/08/03 05:15:12;;;;;;;18.10;13.47;;;19.30;99.90;;;;;;5036132;28;20927;-68
2022/08/03 05:17:39;;;;;;;15.43;12.70;;;19.40;99.90;;;;;;5036357;28;20467;-68
2022/08/03 05:20:09;;;;;;;14.20;12.90;;;19.50;99.90;;;;;;5037048;28;20488;-68
2022/08/03 05:22:36;;;;;;;16.90;13.03;;;19.60;99.90;;;;;;5036024;28;20459;-68
2022/08/03 05:25:04;;;;;;;19.40;13.00;;;19.70;99.90;;;;;;5036507;28;20459;-67
2022/08/03 05:27:30;;;;;;;20.30;14.07;;;19.80;99.90;;;;;;5036360;28;21008;-69
2022/08/03 05:29:58;;;;;;;15.67;14.17;;;19.90;99.90;;;;;;5035734;28;20817;-67
2022/08/03 05:32:25;;;;;;;15.67;14.07;;;20.00;99.90;;;;;;5035878;28;20456;-68
2022/08/03 05:34:52;;;;;;;20.47;14.33;;;20.20;99.90;;;;;;5037006;28;20505;-68
2022/08/03 05:37:20;;;;;;;18.27;14.37;;;20.30;99.90;;;;;;5035765;28;20938;-68
2022/08/03 05:39:47;;;;;;;15.33;13.90;;;20.50;99.90;;;;;;5036370;28;20483;-68
2022/08/03 05:42:15;;;;;;;15.70;13.73;;;20.60;99.90;;;;;;5035311;28;20946;-68
2022/08/03 05:44:42;;;;;;;20.90;13.83;;;20.70;99.90;;;;;;5035783;28;21230;-68
2022/08/03 05:47:10;;;;;;;17.30;15.13;;;20.80;99.90;;;;;;5036121;28;20549;-68
2022/08/03 05:49:37;;;;;;;14.57;12.97;;;20.90;99.90;;;;;;5035072;28;21312;-68
2022/08/03 05:52:04;;;;;;;18.90;14.07;;;20.90;99.90;;;;;;5036649;28;20463;-68
2022/08/03 05:54:33;;;;;;;16.40;13.10;;;21.00;99.90;;;;;;5034499;28;20455;-68
2022/08/03 05:57:01;;;;;;;14.70;13.47;;;21.10;99.90;;;;;;5035512;28;20471;-68
2022/08/03 05:59:27;;;;;;;14.37;13.23;;;21.20;99.90;;;;;;5035810;28;20999;-68
2022/08/03 06:01:54;;;;;;;14.53;13.60;;;21.40;99.90;;;;;;5031495;28;20471;-69
2022/08/03 06:04:21;;;;;;;15.37;13.73;;;21.50;99.90;;;;;;5033635;28;20464;-68
2022/08/03 06:06:49;;;;;;;14.43;13.33;;;21.70;99.90;;;;;;5034331;28;20726;-69
2022/08/03 06:09:16;;;;;;;15.03;13.60;;;21.70;99.90;;;;;;5032989;28;20460;-67
2022/08/03 06:11:44;;;;;;;15.73;13.87;;;21.80;99.90;;;;;;5032545;28;20976;-68
2022/08/03 06:14:11;;;;;;;17.50;13.73;;;21.90;99.90;;;;;;5029756;28;20467;-68
2022/08/03 06:16:38;;;;;;;17.67;14.70;;;22.10;99.90;;;;;;5033531;28;21042;-69
2022/08/03 06:19:05;;;;;;;15.33;13.90;;;22.10;99.90;;;;;;5031189;28;20862;-68
2022/08/03 06:21:32;;;;;;;16.10;14.63;;;22.20;99.90;;;;;;5032718;28;20537;-67
2022/08/03 06:23:59;;;;;;;16.00;14.33;;;22.40;99.90;;;;;;5034148;28;20459;-68
2022/08/03 06:26:27;;;;;;;15.00;14.20;;;22.40;99.90;;;;;;5033501;28;20865;-68
2022/08/03 06:28:56;;;;;;;15.40;13.97;;;22.50;99.90;;;;;;5034414;28;21114;-68
2022/08/03 06:31:24;;;;;;;15.10;14.00;;;22.60;99.90;;;;;;5034038;28;20458;-68
2022/08/03 06:33:51;;;;;;;14.40;13.50;;;22.70;99.90;;;;;;5033277;28;20475;-67
2022/08/03 06:36:18;;;;;;;14.97;13.87;;;22.90;99.90;;;;;;5033669;28;20459;-69
2022/08/03 06:38:45;;;;;;;15.03;13.90;;;23.00;99.90;;;;;;5033782;28;20619;-68
2022/08/03 06:41:12;;;;;;;14.63;13.60;;;23.00;99.90;;;;;;5033101;28;20499;-68
2022/08/03 06:43:39;;;;;;;15.00;14.00;;;23.00;99.90;;;;;;5033418;28;20490;-68
2022/08/03 06:46:07;;;;;;;15.00;14.10;;;23.30;99.90;;;;;;5034090;28;20539;-68
2022/08/03 06:48:34;;;;;;;15.70;14.50;;;23.40;99.90;;;;;;5033234;28;20467;-68
2022/08/03 06:51:01;;;;;;;15.60;14.20;;;23.60;99.90;;;;;;5034179;28;20455;-67
2022/08/03 06:53:28;;;;;;;15.70;14.37;;;23.70;99.90;;;;;;5030697;28;20537;-69
2022/08/03 06:55:55;;;;;;;15.33;14.33;;;23.70;99.90;;;;;;5032887;28;20952;-68
2022/08/03 06:58:22;;;;;;;15.40;14.00;;;23.50;99.90;;;;;;5031299;28;20471;-67
2022/08/03 07:00:49;;;;;;;14.63;13.53;;;23.70;99.90;;;;;;5033083;28;20498;-69
2022/08/03 07:03:17;;;;;;;15.57;14.10;;;23.70;99.90;;;;;;5033831;28;20467;-69
2022/08/03 07:05:46;;;;;;;15.63;14.20;;;24.00;99.90;;;;;;5033199;28;20870;-68
2022/08/03 07:08:12;;;;;;;15.70;14.30;;;24.20;99.90;;;;;;5033612;28;21088;-68
2022/08/03 07:10:39;;;;;;;14.87;13.70;;;24.30;99.90;;;;;;5032894;28;20788;-69
2022/08/03 07:13:06;;;;;;;14.83;13.73;;;24.40;99.90;;;;;;5038548;28;20471;-68
2022/08/03 07:15:34;;;;;;;14.80;13.80;;;24.40;99.90;;;;;;5060488;28;20875;-69
2022/08/03 07:18:00;;;;;;;15.00;13.70;;;24.40;99.90;;;;;;5061942;28;20823;-68
2022/08/03 07:20:29;;;;;;;15.80;14.27;;;24.50;99.90;;;;;;5063905;28;20487;-68
2022/08/03 07:22:55;;;;;;;14.80;13.80;;;24.70;99.90;;;;;;5039698;28;20844;-68
2022/08/03 07:25:22;;;;;;;14.53;13.47;;;24.70;99.90;;;;;;5036231;28;20463;-68
2022/08/03 07:27:49;;;;;;;14.00;13.30;;;24.80;99.90;;;;;;5037780;28;20451;-68
2022/08/03 07:30:17;;;;;;;15.03;14.00;;;24.90;99.90;;;;;;5035491;28;20466;-68
2022/08/03 07:32:44;;;;;;;14.80;14.00;;;25.00;99.90;;;;;;5035778;28;20464;-68
2022/08/03 07:35:11;;;;;;;15.10;14.30;;;25.10;99.90;;;;;;5037158;28;20455;-68
2022/08/03 07:37:40;;;;;;;14.63;13.77;;;25.10;99.90;;;;;;5036626;28;20476;-70
2022/08/03 07:40:07;;;;;;;16.03;14.90;;;25.10;99.90;;;;;;5038382;28;21107;-68
2022/08/03 07:42:34;;;;;;;15.70;14.27;;;25.10;99.90;;;;;;5038014;28;20460;-68
2022/08/03 07:45:01;;;;;;;15.40;14.30;;;25.30;99.90;;;;;;5037165;28;20517;-68
2022/08/03 07:47:30;;;;;;;15.10;14.30;;;25.60;99.90;;;;;;5033825;28;20470;-69
2022/08/03 07:49:58;;;;;;;15.30;14.40;;;25.70;99.90;;;;;;5036180;28;20844;-69
2022/08/03 07:55:11;;;;;;;16.27;15.07;;;25.80;99.90;;;;;;5033558;28;20487;-69
2022/08/03 07:57:38;;;;;;;16.17;14.57;;;25.90;99.90;;;;;;5029833;28;21005;-68
2022/08/03 08:00:07;;;;;;;15.07;14.27;;;26.10;99.90;;;;;;5034468;28;20498;-68
2022/08/03 08:02:34;;;;;;;15.57;14.77;;;26.30;99.90;;;;;;5040834;28;21045;-68
2022/08/03 08:05:01;;;;;;;15.83;14.83;;;26.50;99.90;;;;;;5052382;28;20493;-68
2022/08/03 08:07:28;;;;;;;16.27;14.63;;;26.40;99.90;;;;;;5040424;28;20464;-69
2022/08/03 08:09:55;;;;;;;15.37;14.50;;;26.50;99.90;;;;;;5038062;28;20984;-69
2022/08/03 08:12:23;;;;;;;16.33;15.37;;;26.60;99.90;;;;;;5032955;28;20474;-68
2022/08/03 08:14:50;;;;;;;16.33;15.40;;;26.70;99.90;;;;;;5034749;28;20539;-68
2022/08/03 08:17:18;;;;;;;16.17;15.17;;;26.80;99.90;;;;;;5038710;28;20450;-69
2022/08/03 08:19:45;;;;;;;16.10;15.00;;;26.90;99.90;;;;;;5060699;28;20483;-68
2022/08/03 08:22:12;;;;;;;16.40;15.30;;;27.10;99.90;;;;;;5041031;28;20992;-68
2022/08/03 08:24:39;;;;;;;16.50;15.40;;;27.10;99.90;;;;;;5036098;28;20467;-69
2022/08/03 08:27:07;;;;;;;16.93;15.40;;;27.20;99.90;;;;;;5031213;28;20986;-68
2022/08/03 08:29:35;;;;;;;17.20;15.93;;;27.30;99.90;;;;;;5034802;28;20490;-70
2022/08/03 08:32:02;;;;;;;16.97;15.90;;;27.40;99.90;;;;;;5048555;28;20869;-68
2022/08/03 08:34:29;;;;;;;17.50;16.10;;;27.40;99.90;;;;;;5052533;28;20471;-69
2022/08/03 08:36:56;;;;;;;17.53;16.53;;;27.90;99.90;;;;;;5033157;28;20792;-68
2022/08/03 08:39:23;;;;;;;17.63;16.23;;;28.70;99.90;;;;;;5039671;28;20518;-69
2022/08/03 08:41:51;;;;;;;18.03;17.00;;;29.60;99.90;;;;;;5059087;28;20518;-69
2022/08/03 08:44:18;;;;;;;17.67;16.47;;;30.30;99.90;;;;;;5032486;28;20490;-69
2022/08/03 08:46:48;;;;;;;20.90;16.50;;;31.10;99.90;;;;;;5034624;28;20462;-69
2022/08/03 08:49:18;;;;;;;17.70;16.50;;;31.10;99.70;;;;;;5050439;28;20467;-69
2022/08/03 08:51:49;;;;;;;18.43;16.90;;;31.30;99.10;;;;;;5060685;28;21020;-69
2022/08/03 08:54:20;;;;;;;18.00;16.90;;;31.80;98.30;;;;;;5061461;28;20463;-68
2022/08/03 08:56:48;;;;;;;18.00;16.60;;;32.20;96.40;;;;;;5032051;28;20821;-68
2022/08/03 08:59:16;;;;;;;17.93;16.80;;;32.30;95.60;;;;;;5035222;28;20466;-69
2022/08/03 09:01:43;;;;;;;18.30;16.47;;;32.70;94.30;;;;;;5044047;28;20486;-69
2022/08/03 09:04:11;;;;;;;18.27;17.10;;;33.20;92.80;;;;;;5062629;28;20470;-69
2022/08/03 09:06:38;;;;;;;17.17;16.10;;;32.80;91.00;;;;;;5048476;28;20463;-69
2022/08/03 09:09:06;;;;;;;21.47;16.97;;;32.80;90.80;;;;;;5055082;28;20510;-69
2022/08/03 09:11:34;;;;;;;26.93;17.10;;;33.40;89.60;;;;;;5047028;28;20454;-69
2022/08/03 09:14:01;;;;;;;19.57;16.20;;;33.90;87.40;;;;;;5034756;28;20932;-69
2022/08/03 09:16:28;;;;;;;16.77;15.87;;;33.80;83.40;;;;;;5029631;28;20561;-68
2022/08/03 09:18:55;;;;;;;17.07;16.07;;;33.50;84.60;;;;;;5031149;28;20460;-69
2022/08/03 09:21:25;;;;;;;17.83;16.47;;;33.50;83.80;;;;;;5059761;28;20491;-69
2022/08/03 09:23:53;;;;;;;17.27;16.30;;;33.60;82.20;;;;;;5042692;28;20476;-69
2022/08/03 09:26:22;;;;;;;16.90;15.90;;;33.90;80.80;;;;;;5034046;28;20463;-69
2022/08/03 09:28:56;;;;;;;17.27;16.17;;;34.10;79.40;;;;;;5035589;28;20467;-70
2022/08/03 09:31:31;;;;;;;17.33;15.93;;;34.30;76.70;;;;;;5031480;28;21100;-69
2022/08/03 09:34:00;;;;;;;16.93;16.03;;;34.40;76.50;;;;;;5033568;28;20451;-68
2022/08/03 09:36:39;;;;;;;16.27;15.47;;;34.20;75.00;;;;;;5034355;28;20878;-69
2022/08/03 09:39:09;;;;;;;17.30;16.10;;;33.50;75.50;;;;;;5044981;28;20459;-69
2022/08/03 09:41:38;;;;;;;17.00;16.07;;;33.50;74.90;;;;;;5063618;28;20494;-68
2022/08/03 09:44:07;;;;;;;17.23;16.10;;;33.80;74.30;;;;;;5061731;28;20854;-69
2022/08/03 09:46:49;;;;;;;17.40;16.13;;;33.90;75.00;;;;;;5055576;28;20471;-69
2022/08/03 09:49:16;;;;;;;17.30;16.30;;;34.50;72.40;;;;;;5041514;28;21431;-69
2022/08/03 09:51:45;;;;;;;17.53;16.20;;;34.80;69.80;;;;;;5033763;28;20478;-69
2022/08/03 09:54:12;;;;;;;17.00;16.10;;;34.90;69.30;;;;;;5035009;28;21193;-70
2022/08/03 09:56:44;;;;;;;16.73;15.83;;;35.20;68.90;;;;;;5034856;28;20473;-69
2022/08/03 09:59:13;;;;;;;17.50;16.60;;;35.30;68.50;;;;;;5033630;28;22654;-69
2022/08/03 10:01:41;;;;;;;17.57;15.90;;;35.60;66.40;;;;;;5047043;28;20494;-69
2022/08/03 10:04:16;;;;;;;17.00;15.90;;;35.60;65.40;;;;;;5059503;28;20787;-68
2022/08/03 10:06:46;;;;;;;17.30;16.30;;;35.30;65.50;;;;;;5044791;28;20890;-69
2022/08/03 10:09:16;;;;;;;17.13;16.17;;;35.10;65.70;;;;;;5035405;28;20887;-68
2022/08/03 10:11:45;;;;;;;17.17;16.07;;;35.70;63.90;;;;;;5034379;28;20479;-69
2022/08/03 10:14:17;;;;;;;16.67;15.77;;;35.70;62.90;;;;;;5032890;28;20464;-69
2022/08/03 10:16:45;;;;;;;16.90;15.70;;;35.00;61.70;;;;;;5033585;28;20475;-70
2022/08/03 10:19:13;;;;;;;17.10;16.00;;;34.60;63.00;;;;;;5032286;28;20472;-69
2022/08/03 10:21:41;;;;;;;16.70;15.80;;;34.40;63.90;;;;;;5032464;28;20693;-70
2022/08/03 10:24:11;;;;;;;17.50;16.30;;;35.30;63.60;;;;;;5032448;28;20474;-70
2022/08/03 10:26:39;;;;;;;16.93;15.90;;;35.80;61.40;;;;;;5033424;28;20474;-70
2022/08/03 10:29:10;;;;;;;15.80;14.80;;;35.80;60.20;;;;;;5033434;28;20455;-70
2022/08/03 10:31:40;;;;;;;16.53;15.73;;;35.80;58.90;;;;;;5033782;28;20818;-70
2022/08/03 10:34:13;;;;;;;15.63;14.93;;;35.80;59.40;;;;;;5033470;28;20809;-69
2022/08/03 10:36:41;;;;;;;16.63;15.50;;;35.80;59.20;;;;;;5032097;28;21017;-69
2022/08/03 10:39:13;;;;;;;16.37;15.27;;;35.70;58.20;;;;;;5033562;28;21062;-69
2022/08/03 10:41:43;;;;;;;16.63;15.63;;;35.40;58.40;;;;;;5033564;28;20488;-69
2022/08/03 10:44:14;;;;;;;17.40;15.90;;;35.60;57.40;;;;;;5032124;28;20893;-70
2022/08/03 10:46:43;;;;;;;16.33;15.47;;;36.10;57.50;;;;;;5030184;28;20956;-70
2022/08/03 10:49:13;;;;;;;16.83;15.53;;;36.20;56.80;;;;;;5031301;28;20464;-69
2022/08/03 10:51:40;;;;;;;15.90;15.10;;;36.10;56.50;;;;;;5031670;28;21025;-69
2022/08/03 10:54:09;;;;;;;16.43;15.47;;;35.80;56.80;;;;;;5032400;28;20459;-70
2022/08/03 10:59:58;;;;;;;17.17;16.07;;;36.30;55.20;;;;;;5035011;28;20475;-69
2022/08/03 11:03:07;;;;;;;16.60;15.70;;;36.60;55.10;;;;;;5037327;28;21627;-69
2022/08/03 11:05:36;;;;;;;16.97;15.80;;;37.90;54.00;;;;;;5036839;28;20459;-70
2022/08/03 11:08:27;;;;;;;16.90;15.90;;;38.90;53.10;;;;;;5037532;28;20473;-69
2022/08/03 11:10:56;;;;;;;17.00;15.60;;;38.80;51.90;;;;;;5037732;28;21489;-70
2022/08/03 11:13:27;;;;;;;17.10;16.20;;;38.40;52.60;;;;;;5037087;28;20464;-70
2022/08/03 11:15:56;;;;;;;17.80;16.60;;;38.00;51.70;;;;;;5036814;28;20590;-69
2022/08/03 11:18:24;;;;;;;16.57;15.47;;;38.10;52.20;;;;;;5037034;28;20659;-69
2022/08/03 11:20:52;;;;;;;17.07;15.77;;;37.80;51.40;;;;;;5037292;28;20839;-70
2022/08/03 11:23:39;;;;;;;16.90;15.60;;;37.90;51.30;;;;;;5036901;28;20558;-69
2022/08/03 11:26:14;;;;;;;17.63;16.37;;;37.40;52.00;;;;;;5036412;28;20508;-70
2022/08/03 11:28:45;;;;;;;16.27;15.10;;;37.20;52.00;;;;;;5036982;28;20910;-70
2022/08/03 11:31:47;;;;;;;17.17;15.90;;;37.50;51.80;;;;;;5028125;28;20494;-69
2022/08/03 11:34:16;;;;;;;16.50;15.50;;;37.50;50.90;;;;;;5037767;28;20465;-70
2022/08/03 11:37:22;;;;;;;17.37;15.67;;;37.50;50.60;;;;;;5037749;28;20454;-70
2022/08/03 11:39:51;;;;;;;18.10;16.17;;;37.40;50.70;;;;;;5036890;28;20471;-70
2022/08/03 11:42:47;;;;;;;16.63;15.70;;;37.60;51.70;;;;;;5037937;28;20462;-70
2022/08/03 11:45:15;;;;;;;16.37;15.47;;;37.60;50.40;;;;;;5036925;28;21061;-70
2022/08/03 11:47:43;;;;;;;16.83;15.73;;;37.90;49.70;;;;;;5037111;28;20456;-70
2022/08/03 11:50:10;;;;;;;16.87;15.83;;;38.60;48.50;;;;;;5036037;28;20463;-70
2022/08/03 11:52:39;;;;;;;16.87;15.40;;;38.90;48.10;;;;;;5036579;28;20483;-70
2022/08/03 11:55:15;;;;;;;16.33;15.40;;;38.90;47.40;;;;;;5035454;28;21048;-70
2022/08/03 11:57:45;;;;;;;16.83;15.83;;;38.60;47.40;;;;;;5036805;28;20504;-70
2022/08/03 12:00:28;;;;;;;16.57;15.40;;;38.70;47.80;;;;;;5036419;28;20471;-70
2022/08/03 12:03:00;;;;;;;16.00;15.10;;;39.10;46.80;;;;;;5064216;28;20461;-70
2022/08/03 12:05:38;;;;;;;17.33;15.73;;;39.80;45.30;;;;;;5062124;28;20451;-71
2022/08/03 12:08:05;;;;;;;16.07;15.03;;;40.30;45.20;;;;;;5063383;28;20496;-70
2022/08/03 12:10:32;;;;;;;15.90;15.10;;;40.20;45.50;;;;;;5042006;28;20491;-70
2022/08/03 12:13:00;;;;;;;15.90;15.20;;;39.70;44.60;;;;;;5035694;28;20491;-69
2022/08/03 12:15:32;;;;;;;16.30;15.20;;;39.40;45.10;;;;;;5028388;28;21079;-70
2022/08/03 12:18:00;;;;;;;15.90;15.00;;;39.40;44.30;;;;;;5015498;28;20483;-71
2022/08/03 12:20:29;;;;;;;16.33;15.37;;;39.20;44.40;;;;;;5016768;28;20492;-70
2022/08/03 12:23:02;;;;;;;15.37;14.40;;;39.40;45.00;;;;;;5015530;28;20453;-71
2022/08/03 12:25:30;;;;;;;16.13;15.13;;;39.10;45.90;;;;;;5015753;28;20890;-69
2022/08/03 12:28:08;;;;;;;15.17;14.37;;;38.90;45.40;;;;;;5016344;28;20471;-71
2022/08/03 12:30:37;;;;;;;16.20;14.90;;;39.30;45.30;;;;;;5024601;28;20451;-69
2022/08/03 12:33:22;;;;;;;15.40;14.70;;;39.40;44.50;;;;;;5043541;28;20498;-70
2022/08/03 12:36:01;;;;;;;15.33;14.53;;;39.20;45.10;;;;;;5031706;28;20469;-70
2022/08/03 12:38:28;;;;;;;15.63;14.50;;;40.00;42.40;;;;;;5016013;28;20537;-70
2022/08/03 12:40:57;;;;;;;15.30;14.40;;;39.60;42.80;;;;;;5014880;28;20476;-69
2022/08/03 12:43:25;;;;;;;15.43;14.30;;;39.40;42.20;;;;;;5015547;28;20476;-70
2022/08/03 12:46:10;;;;;;;15.47;14.37;;;39.30;42.20;;;;;;5013258;28;21260;-70
2022/08/03 12:48:52;;;;;;;15.17;14.13;;;39.40;41.40;;;;;;5045432;28;20456;-70
2022/08/03 12:51:19;;;;;;;15.43;14.70;;;39.50;41.10;;;;;;5039276;28;21047;-69
2022/08/03 12:53:52;;;;;;;14.70;14.00;;;39.90;41.60;;;;;;5014276;28;20479;-71
2022/08/03 12:56:19;;;;;;;15.00;14.20;;;40.50;40.40;;;;;;5014453;28;20468;-71